createdAt,value
2023-05-05T00:01:25.765Z,26.43
2023-05-05T00:03:52.795Z,24.77
2023-05-05T00:06:19.867Z,25.90
2023-05-05T00:08:47.338Z,24.13
2023-05-05T00:11:14.138Z,23.70
2023-05-05T00:13:40.973Z,24.77
2023-05-05T00:16:07.920Z,25.27
2023-05-05T00:18:34.965Z,23.80
2023-05-05T00:21:01.832Z,24.77
2023-05-05T00:23:28.790Z,24.27
2023-05-05T00:25:55.869Z,24.57
2023-05-05T00:28:22.674Z,26.23
2023-05-05T00:30:49.498Z,24.40
2023-05-05T00:33:16.705Z,25.03
2023-05-05T00:35:43.675Z,25.10
2023-05-05T00:38:10.505Z,23.77
2023-05-05T00:40:38.115Z,25.53
2023-05-05T00:43:05.295Z,25.90
2023-05-05T00:45:32.171Z,25.43
2023-05-05T00:48:00.627Z,26.20
2023-05-05T00:50:30.129Z,26.03
2023-05-05T00:53:00.708Z,26.10
2023-05-05T00:55:29.225Z,26.60
2023-05-05T00:57:57.229Z,25.97
2023-05-05T01:00:24.441Z,26.97
2023-05-05T01:02:52.561Z,26.47
2023-05-05T01:05:23.985Z,27.13
2023-05-05T01:08:09.453Z,26.23
2023-05-05T01:10:58.344Z,27.23
2023-05-05T01:13:32.778Z,26.83
2023-05-05T01:16:21.212Z,28.87
2023-05-05T01:19:11.836Z,28.27
2023-05-05T01:21:46.651Z,28.60
2023-05-05T01:24:29.249Z,30.63
2023-05-05T01:27:14.587Z,29.67
2023-05-05T01:29:51.790Z,31.87
2023-05-05T01:32:29.693Z,32.70
2023-05-05T01:35:02.664Z,30.20
2023-05-05T01:37:40.115Z,33.37
2023-05-05T01:40:10.589Z,31.83
2023-05-05T01:42:40.840Z,31.47
2023-05-05T01:45:09.572Z,30.77
2023-05-05T01:47:39.226Z,32.23
2023-05-05T01:50:08.514Z,30.83
2023-05-05T01:52:37.604Z,31.07
2023-05-05T01:55:06.503Z,31.20
2023-05-05T01:57:33.888Z,28.47
2023-05-05T02:00:04.460Z,30.97
2023-05-05T02:02:42.809Z,31.37
2023-05-05T02:05:10.160Z,30.13
2023-05-05T02:07:37.505Z,26.57
2023-05-05T02:10:06.250Z,29.37
2023-05-05T02:12:35.265Z,29.83
2023-05-05T02:15:03.452Z,29.07
2023-05-05T02:17:31.154Z,30.50
2023-05-05T02:20:01.055Z,29.83
2023-05-05T02:22:28.249Z,29.77
2023-05-05T02:24:55.298Z,29.27
2023-05-05T02:27:24.295Z,30.17
2023-05-05T02:29:56.153Z,31.23
2023-05-05T02:32:31.885Z,30.87
2023-05-05T02:35:04.512Z,32.03
2023-05-05T02:37:33.938Z,30.83
2023-05-05T02:40:04.681Z,29.50
2023-05-05T02:42:39.933Z,30.53
2023-05-05T02:45:17.471Z,30.77
2023-05-05T02:47:47.359Z,30.73
2023-05-05T02:50:15.743Z,30.87
2023-05-05T02:52:50.073Z,30.17
2023-05-05T02:55:19.791Z,29.60
2023-05-05T02:58:19.084Z,31.90
2023-05-05T03:01:07.280Z,30.93
2023-05-05T03:03:51.805Z,31.40
2023-05-05T03:06:21.616Z,30.57
2023-05-05T03:08:57.476Z,31.17
2023-05-05T03:11:34.934Z,32.03
2023-05-05T03:14:09.409Z,33.40
2023-05-05T03:16:38.168Z,34.50
2023-05-05T03:19:06.975Z,34.87
2023-05-05T03:21:34.377Z,35.53
2023-05-05T03:24:10.652Z,32.30
2023-05-05T03:26:37.476Z,32.97
2023-05-05T03:29:06.719Z,32.63
2023-05-05T03:31:36.176Z,31.83
2023-05-05T03:34:03.300Z,33.77
2023-05-05T03:36:36.367Z,34.03
2023-05-05T03:39:03.684Z,35.47
2023-05-05T03:41:33.820Z,33.47
2023-05-05T03:44:00.649Z,34.90
2023-05-05T03:46:27.707Z,34.27
2023-05-05T03:48:57.187Z,34.47
2023-05-05T03:51:25.249Z,33.57
2023-05-05T03:53:52.870Z,33.57
2023-05-05T03:56:19.970Z,35.10
2023-05-05T03:58:46.959Z,34.77
2023-05-05T04:01:13.888Z,33.00
2023-05-05T04:03:40.813Z,33.13
2023-05-05T04:06:07.747Z,32.50
2023-05-05T04:08:34.664Z,32.70
2023-05-05T04:11:02.645Z,32.73
2023-05-05T04:13:31.871Z,34.33
2023-05-05T04:15:59.815Z,33.53
2023-05-05T04:18:26.921Z,33.93
2023-05-05T04:20:54.533Z,33.50
2023-05-05T04:23:22.387Z,34.40
2023-05-05T04:25:50.078Z,34.73
2023-05-05T04:28:17.800Z,33.97
2023-05-05T04:30:47.080Z,34.17
2023-05-05T04:33:14.068Z,33.67
2023-05-05T04:35:40.981Z,32.67
2023-05-05T04:38:07.895Z,34.70
2023-05-05T04:40:39.155Z,34.87
2023-05-05T04:43:07.417Z,34.53
2023-05-05T04:45:34.359Z,35.33
2023-05-05T04:48:01.690Z,37.17
2023-05-05T04:50:28.607Z,37.30
2023-05-05T04:52:56.292Z,35.13
2023-05-05T04:55:24.100Z,34.93
2023-05-05T04:57:50.965Z,36.70
2023-05-05T05:00:17.940Z,38.70
2023-05-05T05:02:44.770Z,39.33
2023-05-05T05:05:11.693Z,36.93
2023-05-05T05:07:38.965Z,37.60
2023-05-05T05:10:06.503Z,37.30
2023-05-05T05:12:33.510Z,38.57
2023-05-05T05:15:00.350Z,40.17
2023-05-05T05:17:27.395Z,40.20
2023-05-05T05:19:55.326Z,38.33
2023-05-05T05:22:22.682Z,39.43
2023-05-05T05:24:49.686Z,39.13
2023-05-05T05:27:16.599Z,41.13
2023-05-05T05:29:45.970Z,39.43
2023-05-05T05:32:12.950Z,41.17
2023-05-05T05:34:39.775Z,43.23
2023-05-05T05:37:08.839Z,40.33
2023-05-05T05:39:37.003Z,41.17
2023-05-05T05:42:04.548Z,41.27
2023-05-05T05:44:31.323Z,43.57
2023-05-05T05:46:58.742Z,44.93
2023-05-05T05:49:25.718Z,41.30
2023-05-05T05:51:52.906Z,43.30
2023-05-05T05:54:19.798Z,45.53
2023-05-05T05:56:46.804Z,42.70
2023-05-05T05:59:13.627Z,42.57
2023-05-05T06:01:41.648Z,46.43
2023-05-05T06:04:08.752Z,44.93
2023-05-05T06:06:37.559Z,45.03
2023-05-05T06:09:05.379Z,44.30
2023-05-05T06:11:34.942Z,46.13
2023-05-05T06:14:01.782Z,43.27
2023-05-05T06:16:28.951Z,43.73
2023-05-05T06:18:57.393Z,44.27
2023-05-05T06:21:24.758Z,42.33
2023-05-05T06:23:52.197Z,43.73
2023-05-05T06:26:19.213Z,34.90
2023-05-05T06:28:46.145Z,37.03
2023-05-05T06:31:14.220Z,35.77
2023-05-05T06:33:41.173Z,34.77
2023-05-05T06:36:08.295Z,35.77
2023-05-05T06:38:35.236Z,36.83
2023-05-05T06:41:02.462Z,37.17
2023-05-05T06:43:29.640Z,37.13
2023-05-05T06:45:59.670Z,34.90
2023-05-05T06:48:26.587Z,36.30
2023-05-05T06:50:53.373Z,39.03
2023-05-05T06:53:20.443Z,34.30
2023-05-05T06:55:47.677Z,32.63
2023-05-05T06:58:14.472Z,37.00
2023-05-05T07:00:41.335Z,32.33
2023-05-05T07:03:08.492Z,32.57
2023-05-05T07:05:35.447Z,32.20
2023-05-05T07:08:02.281Z,33.43
2023-05-05T07:10:29.107Z,34.07
2023-05-05T07:12:56.024Z,33.47
2023-05-05T07:15:27.510Z,34.63
2023-05-05T07:17:55.521Z,27.50
2023-05-05T07:20:22.325Z,34.30
2023-05-05T07:22:49.121Z,33.07
2023-05-05T07:25:16.175Z,33.93
2023-05-05T07:27:43.152Z,33.77
2023-05-05T07:30:14.082Z,32.23
2023-05-05T07:32:43.421Z,26.83
2023-05-05T07:35:10.416Z,34.53
2023-05-05T07:37:37.147Z,33.47
2023-05-05T07:40:04.322Z,33.37
2023-05-05T07:42:31.196Z,33.97
2023-05-05T07:44:57.952Z,34.70
2023-05-05T07:47:24.946Z,32.67
2023-05-05T07:49:51.772Z,29.97
2023-05-05T07:52:19.432Z,33.53
2023-05-05T07:54:48.536Z,32.17
2023-05-05T07:57:16.426Z,22.80
2023-05-05T07:59:43.937Z,20.63
2023-05-05T08:02:12.749Z,23.53
2023-05-05T08:04:43.457Z,23.77
2023-05-05T08:07:10.960Z,20.80
2023-05-05T08:09:38.586Z,19.33
2023-05-05T08:12:05.850Z,22.73
2023-05-05T08:14:33.042Z,23.40
2023-05-05T08:16:59.859Z,22.17
2023-05-05T08:19:29.250Z,21.50
2023-05-05T08:21:58.935Z,20.17
2023-05-05T08:24:27.950Z,20.50
2023-05-05T08:26:56.029Z,19.33
2023-05-05T08:29:23.248Z,21.47
2023-05-05T08:31:50.050Z,21.83
2023-05-05T08:34:16.928Z,18.47
2023-05-05T08:36:43.739Z,19.83
2023-05-05T08:39:10.720Z,18.70
2023-05-05T08:41:37.621Z,18.67
2023-05-05T08:44:04.466Z,19.47
2023-05-05T08:46:31.755Z,20.87
2023-05-05T08:48:59.905Z,20.67
2023-05-05T08:51:31.504Z,20.40
2023-05-05T08:54:05.869Z,20.20
2023-05-05T08:56:39.975Z,20.80
2023-05-05T08:59:08.416Z,20.63
2023-05-05T09:01:36.293Z,21.53
2023-05-05T09:04:04.662Z,20.07
2023-05-05T09:06:33.767Z,20.17
2023-05-05T09:09:01.297Z,19.97
2023-05-05T09:11:28.233Z,19.33
2023-05-05T09:13:55.953Z,17.67
2023-05-05T09:16:22.996Z,21.37
2023-05-05T09:18:49.918Z,19.83
2023-05-05T09:21:27.796Z,20.47
2023-05-05T09:24:11.313Z,20.80
2023-05-05T09:26:47.266Z,21.53
2023-05-05T09:29:21.554Z,21.17
2023-05-05T09:32:11.208Z,21.77
2023-05-05T09:34:38.091Z,20.13
2023-05-05T09:37:05.974Z,19.37
2023-05-05T09:39:32.992Z,20.43
2023-05-05T09:41:59.927Z,18.23
2023-05-05T09:44:37.909Z,17.90
2023-05-05T09:47:09.442Z,17.07
2023-05-05T09:49:39.684Z,17.30
2023-05-05T09:52:15.472Z,17.47
2023-05-05T09:54:43.592Z,17.47
2023-05-05T09:57:29.724Z,19.73
2023-05-05T10:00:01.432Z,21.03
2023-05-05T10:02:33.806Z,21.17
2023-05-05T10:05:12.773Z,20.87
2023-05-05T10:07:42.075Z,22.30
2023-05-05T10:10:11.926Z,22.67
2023-05-05T10:12:39.450Z,19.90
2023-05-05T10:15:08.318Z,20.07
2023-05-05T10:18:02.796Z,19.47
2023-05-05T10:20:38.197Z,23.10
2023-05-05T10:23:08.183Z,19.97
2023-05-05T10:25:42.499Z,26.60
2023-05-05T10:28:11.874Z,33.17
2023-05-05T10:30:46.016Z,30.47
2023-05-05T10:33:31.642Z,32.53
2023-05-05T10:36:02.016Z,33.90
2023-05-05T10:38:32.197Z,31.53
2023-05-05T10:41:01.390Z,33.87
2023-05-05T10:43:30.090Z,32.63
2023-05-05T10:45:57.421Z,33.00
2023-05-05T10:48:37.829Z,31.03
2023-05-05T10:51:38.733Z,32.67
2023-05-05T10:54:17.089Z,32.53
2023-05-05T10:56:44.065Z,32.67
2023-05-05T10:59:36.090Z,33.27
2023-05-05T11:02:19.856Z,30.73
2023-05-05T11:05:09.548Z,29.77
2023-05-05T11:07:40.141Z,30.50
2023-05-05T11:10:08.268Z,32.90
2023-05-05T11:12:54.780Z,34.07
2023-05-05T11:15:27.443Z,35.07
2023-05-05T11:17:58.383Z,34.27
2023-05-05T11:20:37.671Z,37.03
2023-05-05T11:23:04.998Z,38.03
2023-05-05T11:25:35.298Z,39.00
2023-05-05T11:28:09.417Z,38.80
2023-05-05T11:30:57.856Z,39.97
2023-05-05T11:33:36.993Z,41.13
2023-05-05T11:36:06.684Z,41.37
2023-05-05T11:38:55.577Z,43.07
2023-05-05T11:41:34.303Z,48.70
2023-05-05T11:44:30.117Z,51.97
2023-05-05T11:47:02.793Z,54.10
2023-05-05T11:49:39.748Z,49.80
2023-05-05T11:52:12.408Z,47.17
2023-05-05T11:54:47.668Z,46.83
2023-05-05T11:57:21.565Z,46.40
2023-05-05T12:00:04.080Z,50.77
2023-05-05T12:02:34.109Z,52.63
2023-05-05T12:05:01.241Z,54.37
2023-05-05T12:07:30.893Z,52.10
2023-05-05T12:09:57.962Z,54.00
2023-05-05T12:12:39.330Z,55.00
2023-05-05T12:15:07.620Z,57.03
2023-05-05T12:17:43.730Z,56.40
2023-05-05T12:20:12.423Z,53.13
2023-05-05T12:22:40.148Z,44.47
2023-05-05T12:25:08.229Z,40.90
2023-05-05T12:27:35.473Z,42.67
2023-05-05T12:30:17.509Z,45.70
2023-05-05T12:32:45.305Z,45.87
2023-05-05T12:35:13.234Z,66.50
2023-05-05T12:37:40.403Z,72.00
2023-05-05T12:40:08.778Z,67.37
2023-05-05T12:42:39.139Z,46.20
2023-05-05T12:45:15.806Z,45.23
2023-05-05T12:47:44.082Z,55.23
2023-05-05T12:50:11.309Z,67.13
2023-05-05T12:52:45.154Z,61.27
2023-05-05T12:55:12.450Z,57.00
2023-05-05T12:57:57.841Z,53.33
2023-05-05T13:00:25.392Z,47.80
2023-05-05T13:02:53.015Z,45.87
2023-05-05T13:05:33.092Z,45.40
2023-05-05T13:08:00.042Z,46.03
2023-05-05T13:10:28.047Z,46.60
2023-05-05T13:12:56.757Z,43.07
2023-05-05T13:15:27.539Z,43.40
2023-05-05T13:18:01.332Z,40.60
2023-05-05T13:20:29.003Z,47.47
2023-05-05T13:22:55.912Z,46.93
2023-05-05T13:25:22.804Z,44.93
2023-05-05T13:27:49.597Z,47.53
2023-05-05T13:30:16.461Z,52.17
2023-05-05T13:32:43.358Z,52.37
2023-05-05T13:35:10.915Z,53.27
2023-05-05T13:37:38.982Z,51.70
2023-05-05T13:40:07.264Z,48.73
2023-05-05T13:42:34.062Z,46.37
2023-05-05T13:45:00.952Z,47.83
2023-05-05T13:47:27.716Z,49.50
2023-05-05T13:49:54.508Z,48.40
2023-05-05T13:52:21.254Z,48.30
2023-05-05T13:54:48.168Z,52.73
2023-05-05T13:57:15.052Z,45.83
2023-05-05T13:59:41.834Z,52.67
2023-05-05T14:02:08.726Z,52.23
2023-05-05T14:04:36.065Z,59.17
2023-05-05T14:07:04.692Z,51.97
2023-05-05T14:09:31.469Z,53.73
2023-05-05T14:11:59.165Z,53.30
2023-05-05T14:14:25.936Z,54.73
2023-05-05T14:16:52.751Z,54.20
2023-05-05T14:19:19.671Z,49.83
2023-05-05T14:21:46.450Z,45.93
2023-05-05T14:24:13.272Z,44.50
2023-05-05T14:26:40.139Z,44.17
2023-05-05T14:29:06.887Z,45.40
2023-05-05T14:31:33.833Z,44.57
2023-05-05T14:34:01.147Z,44.47
2023-05-05T14:36:27.967Z,42.27
2023-05-05T14:38:54.879Z,43.70
2023-05-05T14:41:21.675Z,46.23
2023-05-05T14:43:50.425Z,45.90
2023-05-05T14:46:17.402Z,46.87
2023-05-05T14:48:46.363Z,48.33
2023-05-05T14:51:15.772Z,57.77
2023-05-05T14:53:42.610Z,63.20
2023-05-05T14:56:09.588Z,63.53
2023-05-05T14:58:36.440Z,60.77
2023-05-05T15:01:03.595Z,64.03
2023-05-05T15:03:30.585Z,62.30
2023-05-05T15:05:57.803Z,61.07
2023-05-05T15:08:24.655Z,65.70
2023-05-05T15:10:51.546Z,66.90
2023-05-05T15:13:18.732Z,67.03
2023-05-05T15:15:45.843Z,56.03
2023-05-05T15:18:12.673Z,37.40
2023-05-05T15:20:39.565Z,38.93
2023-05-05T15:23:06.578Z,44.80
2023-05-05T15:25:33.378Z,47.30
2023-05-05T15:28:00.933Z,47.80
2023-05-05T15:30:28.178Z,42.50
2023-05-05T15:32:55.135Z,47.97
2023-05-05T15:35:22.266Z,49.27
2023-05-05T15:37:49.026Z,54.37
2023-05-05T15:40:15.892Z,52.67
2023-05-05T15:42:42.729Z,52.43
2023-05-05T15:45:12.309Z,48.03
2023-05-05T15:47:39.334Z,57.17
2023-05-05T15:50:06.934Z,56.67
2023-05-05T15:52:34.302Z,36.47
2023-05-05T15:55:01.736Z,42.50
2023-05-05T15:57:28.832Z,36.30
2023-05-05T15:59:55.689Z,34.87
2023-05-05T16:02:22.760Z,38.37
2023-05-05T16:04:49.765Z,47.17
2023-05-05T16:07:17.134Z,64.30
2023-05-05T16:09:44.352Z,69.13
2023-05-05T16:12:11.301Z,64.07
2023-05-05T16:14:38.073Z,42.90
2023-05-05T16:17:05.080Z,35.73
2023-05-05T16:19:31.951Z,34.07
2023-05-05T16:21:58.819Z,39.93
2023-05-05T16:24:25.769Z,35.73
2023-05-05T16:26:52.573Z,34.47
2023-05-05T16:29:19.403Z,34.07
2023-05-05T16:31:46.278Z,34.90
2023-05-05T16:34:13.280Z,35.40
2023-05-05T16:36:40.870Z,32.40
2023-05-05T16:39:08.395Z,38.17
2023-05-05T16:41:35.266Z,36.67
2023-05-05T16:44:02.279Z,40.70
2023-05-05T16:46:29.204Z,31.43
2023-05-05T16:48:56.316Z,34.23
2023-05-05T16:51:23.171Z,36.33
2023-05-05T16:53:50.121Z,41.70
2023-05-05T16:56:16.938Z,41.53
2023-05-05T16:58:43.729Z,36.83
2023-05-05T17:01:10.633Z,33.37
2023-05-05T17:03:38.257Z,36.73
2023-05-05T17:06:06.021Z,35.47
2023-05-05T17:08:32.818Z,32.87
2023-05-05T17:10:59.701Z,35.20
2023-05-05T17:13:26.748Z,31.70
2023-05-05T17:15:53.624Z,30.00
2023-05-05T17:18:22.695Z,30.90
2023-05-05T17:20:50.199Z,31.10
2023-05-05T17:23:16.980Z,29.20
2023-05-05T17:25:43.887Z,26.43
2023-05-05T17:28:10.716Z,29.60
2023-05-05T17:30:37.675Z,26.40
2023-05-05T17:33:04.669Z,28.33
2023-05-05T17:35:31.946Z,30.70
2023-05-05T17:37:58.776Z,31.50
2023-05-05T17:40:25.594Z,28.90
2023-05-05T17:42:52.542Z,32.00
2023-05-05T17:45:19.295Z,28.97
2023-05-05T17:47:46.066Z,32.37
2023-05-05T17:50:12.881Z,32.23
2023-05-05T17:52:41.087Z,29.67
2023-05-05T17:55:08.541Z,31.33
2023-05-05T17:57:35.792Z,30.23
2023-05-05T18:00:04.603Z,32.87
2023-05-05T18:02:39.506Z,39.73
2023-05-05T18:05:06.848Z,38.10
2023-05-05T18:07:34.390Z,31.40
2023-05-05T18:10:01.385Z,31.10
2023-05-05T18:12:28.197Z,27.97
2023-05-05T18:14:54.943Z,33.67
2023-05-05T18:17:21.769Z,29.77
2023-05-05T18:19:49.360Z,29.67
2023-05-05T18:22:16.497Z,32.50
2023-05-05T18:24:43.339Z,28.10
2023-05-05T18:27:10.244Z,27.63
2023-05-05T18:29:37.071Z,34.23
2023-05-05T18:32:06.017Z,36.20
2023-05-05T18:34:33.034Z,35.60
2023-05-05T18:37:00.361Z,36.57
2023-05-05T18:39:27.265Z,36.60
2023-05-05T18:41:54.127Z,38.37
2023-05-05T18:44:21.024Z,37.50
2023-05-05T18:46:48.546Z,36.27
2023-05-05T18:49:15.546Z,38.23
2023-05-05T18:51:42.748Z,37.83
2023-05-05T18:54:09.782Z,37.97
2023-05-05T18:56:36.756Z,38.40
2023-05-05T18:59:04.788Z,38.10
2023-05-05T19:01:32.079Z,39.27
2023-05-05T19:03:59.014Z,38.83
2023-05-05T19:06:25.863Z,40.00
2023-05-05T19:08:52.846Z,36.57
2023-05-05T19:11:19.667Z,35.93
2023-05-05T19:13:46.599Z,39.53
2023-05-05T19:16:13.443Z,40.60
2023-05-05T19:18:40.306Z,40.40
2023-05-05T19:21:07.176Z,41.40
2023-05-05T19:23:35.968Z,40.93
2023-05-05T19:26:03.724Z,40.43
2023-05-05T19:28:30.657Z,39.63
2023-05-05T19:30:57.543Z,38.63
2023-05-05T19:33:24.495Z,40.93
2023-05-05T19:35:51.427Z,43.17
2023-05-05T19:38:18.182Z,42.47
2023-05-05T19:40:44.986Z,43.20
2023-05-05T19:43:11.769Z,44.77
2023-05-05T19:45:38.633Z,41.27
2023-05-05T19:48:06.073Z,43.33
2023-05-05T19:50:32.866Z,39.47
2023-05-05T19:52:59.766Z,39.23
2023-05-05T19:55:26.932Z,39.30
2023-05-05T19:57:53.890Z,40.83
2023-05-05T20:00:20.946Z,44.57
2023-05-05T20:02:49.085Z,50.80
2023-05-05T20:05:17.394Z,51.50
2023-05-05T20:07:46.281Z,48.77
2023-05-05T20:10:13.504Z,49.10
2023-05-05T20:12:47.399Z,46.27
2023-05-05T20:15:20.258Z,44.77
2023-05-05T20:17:47.947Z,45.97
2023-05-05T20:20:20.821Z,46.53
2023-05-05T20:22:48.778Z,46.10
2023-05-05T20:25:18.749Z,47.23
2023-05-05T20:27:45.962Z,48.67
2023-05-05T20:30:13.257Z,45.20
2023-05-05T20:32:40.715Z,46.43
2023-05-05T20:35:08.256Z,42.80
2023-05-05T20:37:35.383Z,48.73
2023-05-05T20:40:02.355Z,45.27
2023-05-05T20:42:29.694Z,52.00
2023-05-05T20:44:56.731Z,55.90
2023-05-05T20:47:24.246Z,52.83
2023-05-05T20:49:52.366Z,53.83
2023-05-05T20:52:19.504Z,55.47
2023-05-05T20:54:46.316Z,56.90
2023-05-05T20:57:13.139Z,53.43
2023-05-05T20:59:39.939Z,58.57
2023-05-05T21:02:07.377Z,56.47
2023-05-05T21:04:34.412Z,55.63
2023-05-05T21:07:01.255Z,56.63
2023-05-05T21:09:28.232Z,58.97
2023-05-05T21:11:55.208Z,52.97
2023-05-05T21:14:22.098Z,48.70
2023-05-05T21:16:48.951Z,49.70
2023-05-05T21:19:16.440Z,46.93
2023-05-05T21:21:43.472Z,53.17
2023-05-05T21:24:10.523Z,51.00
2023-05-05T21:26:37.576Z,50.20
2023-05-05T21:29:04.600Z,50.60
2023-05-05T21:31:31.531Z,51.70
2023-05-05T21:33:58.357Z,57.00
2023-05-05T21:36:25.338Z,60.67
2023-05-05T21:38:55.268Z,58.57
2023-05-05T21:41:23.328Z,55.63
2023-05-05T21:43:50.148Z,56.93
2023-05-05T21:46:18.277Z,54.27
2023-05-05T21:48:47.190Z,49.13
2023-05-05T21:51:14.179Z,47.13
2023-05-05T21:53:41.021Z,46.93
2023-05-05T21:56:08.559Z,44.73
2023-05-05T21:58:35.627Z,42.67
2023-05-05T22:01:02.605Z,43.50
2023-05-05T22:03:29.554Z,45.10
2023-05-05T22:05:56.382Z,51.57
2023-05-05T22:08:23.249Z,50.43
2023-05-05T22:10:50.021Z,50.27
2023-05-05T22:13:16.883Z,52.23
2023-05-05T22:15:47.224Z,54.30
2023-05-05T22:18:15.188Z,51.23
2023-05-05T22:20:42.248Z,52.10
2023-05-05T22:23:09.216Z,53.87
2023-05-05T22:25:35.955Z,48.90
2023-05-05T22:28:02.798Z,61.97
2023-05-05T22:30:29.658Z,58.97
2023-05-05T22:32:56.594Z,58.63
2023-05-05T22:35:23.526Z,59.03
2023-05-05T22:37:50.433Z,56.40
2023-05-05T22:40:17.366Z,57.53
2023-05-05T22:42:44.309Z,56.27
2023-05-05T22:45:11.438Z,52.40
2023-05-05T22:47:38.550Z,54.63
2023-05-05T22:50:06.191Z,55.90
2023-05-05T22:52:32.998Z,58.93
2023-05-05T22:54:59.791Z,65.80
2023-05-05T22:57:26.566Z,58.50
2023-05-05T22:59:53.379Z,56.80
2023-05-05T23:02:20.180Z,65.37
2023-05-05T23:04:47.135Z,70.90
2023-05-05T23:07:14.021Z,64.27
2023-05-05T23:09:41.095Z,62.67
2023-05-05T23:12:07.942Z,58.97
2023-05-05T23:14:35.585Z,63.10
2023-05-05T23:17:02.543Z,58.47
2023-05-05T23:19:32.068Z,67.33
2023-05-05T23:21:59.686Z,54.90
2023-05-05T23:24:27.590Z,54.17
2023-05-05T23:26:54.878Z,56.20
2023-05-05T23:29:21.724Z,61.77
2023-05-05T23:31:48.508Z,61.97
2023-05-05T23:34:15.593Z,68.17
2023-05-05T23:36:43.568Z,69.00
2023-05-05T23:39:10.415Z,63.50
2023-05-05T23:41:37.256Z,59.00
2023-05-05T23:44:04.212Z,62.53
2023-05-05T23:46:31.227Z,64.07
2023-05-05T23:48:58.107Z,71.13
2023-05-05T23:51:24.947Z,69.83
2023-05-05T23:53:51.994Z,67.30
2023-05-05T23:56:18.851Z,67.37
2023-05-05T23:58:45.791Z,69.77
